sensor_id;sensor_type;location;lat;lon;timestamp;temperature;humidity
22008;DHT22;11168;56.976;24.168;2023-02-01T00:00:31;1.30;99.90
22008;DHT22;11168;56.976;24.168;2023-02-01T00:03:00;1.40;99.90
22008;DHT22;11168;56.976;24.168;2023-02-01T00:05:27;1.40;99.90
22008;DHT22;11168;56.976;24.168;2023-02-01T00:07:56;1.40;99.90
22008;DHT22;11168;56.976;24.168;2023-02-01T00:10:22;1.40;99.90
22008;DHT22;11168;56.976;24.168;2023-02-01T00:12:50;1.40;99.90
22008;DHT22;11168;56.976;24.168;2023-02-01T00:15:17;1.40;99.90
22008;DHT22;11168;56.976;24.168;2023-02-01T00:17:44;1.40;99.90
22008;DHT22;11168;56.976;24.168;2023-02-01T00:20:11;1.40;99.90
22008;DHT22;11168;56.976;24.168;2023-02-01T00:22:38;1.40;99.90
22008;DHT22;11168;56.976;24.168;2023-02-01T00:25:05;1.40;99.90
22008;DHT22;11168;56.976;24.168;2023-02-01T00:27:33;1.50;99.90
22008;DHT22;11168;56.976;24.168;2023-02-01T00:29:59;1.50;99.90
22008;DHT22;11168;56.976;24.168;2023-02-01T00:32:26;1.50;99.90
22008;DHT22;11168;56.976;24.168;2023-02-01T00:34:53;1.50;99.90
22008;DHT22;11168;56.976;24.168;2023-02-01T00:37:20;1.50;99.90
22008;DHT22;11168;56.976;24.168;2023-02-01T00:39:48;1.50;99.90
22008;DHT22;11168;56.976;24.168;2023-02-01T00:42:16;1.50;99.90
22008;DHT22;11168;56.976;24.168;2023-02-01T00:44:43;1.50;99.90
22008;DHT22;11168;56.976;24.168;2023-02-01T00:47:11;1.50;99.90
22008;DHT22;11168;56.976;24.168;2023-02-01T00:49:38;1.50;99.90
22008;DHT22;11168;56.976;24.168;2023-02-01T00:52:05;1.50;99.90
22008;DHT22;11168;56.976;24.168;2023-02-01T00:54:33;1.60;99.90
22008;DHT22;11168;56.976;24.168;2023-02-01T00:57:00;1.50;99.90
22008;DHT22;11168;56.976;24.168;2023-02-01T00:59:27;1.50;99.90
22008;DHT22;11168;56.976;24.168;2023-02-01T01:01:53;1.50;99.90
22008;DHT22;11168;56.976;24.168;2023-02-01T01:04:20;1.50;99.90
22008;DHT22;11168;56.976;24.168;2023-02-01T01:06:47;1.50;99.90
22008;DHT22;11168;56.976;24.168;2023-02-01T01:09:14;1.50;99.90
22008;DHT22;11168;56.976;24.168;2023-02-01T01:11:41;1.50;99.90
22008;DHT22;11168;56.976;24.168;2023-02-01T01:14:09;1.60;99.90
22008;DHT22;11168;56.976;24.168;2023-02-01T01:16:36;1.50;99.90
22008;DHT22;11168;56.976;24.168;2023-02-01T01:19:03;1.50;99.90
22008;DHT22;11168;56.976;24.168;2023-02-01T01:21:30;1.50;99.90
22008;DHT22;11168;56.976;24.168;2023-02-01T01:23:58;1.50;99.90
22008;DHT22;11168;56.976;24.168;2023-02-01T01:26:27;1.50;99.90
22008;DHT22;11168;56.976;24.168;2023-02-01T01:28:55;1.50;99.90
22008;DHT22;11168;56.976;24.168;2023-02-01T01:31:23;1.50;99.90
22008;DHT22;11168;56.976;24.168;2023-02-01T01:33:52;1.50;99.90
22008;DHT22;11168;56.976;24.168;2023-02-01T01:36:20;1.50;99.90
22008;DHT22;11168;56.976;24.168;2023-02-01T01:38:48;1.50;99.90
22008;DHT22;11168;56.976;24.168;2023-02-01T01:41:20;1.50;99.90
22008;DHT22;11168;56.976;24.168;2023-02-01T01:43:57;1.50;99.90
22008;DHT22;11168;56.976;24.168;2023-02-01T01:49:14;1.50;99.90
22008;DHT22;11168;56.976;24.168;2023-02-01T01:51:51;1.50;99.90
22008;DHT22;11168;56.976;24.168;2023-02-01T01:54:25;1.50;99.90
22008;DHT22;11168;56.976;24.168;2023-02-01T01:56:57;1.50;99.90
22008;DHT22;11168;56.976;24.168;2023-02-01T01:59:25;1.50;99.90
22008;DHT22;11168;56.976;24.168;2023-02-01T02:01:52;1.50;99.90
22008;DHT22;11168;56.976;24.168;2023-02-01T02:04:19;1.50;99.90
22008;DHT22;11168;56.976;24.168;2023-02-01T02:07:09;1.50;99.90
22008;DHT22;11168;56.976;24.168;2023-02-01T02:09:38;1.50;99.90
22008;DHT22;11168;56.976;24.168;2023-02-01T02:12:13;1.50;99.90
22008;DHT22;11168;56.976;24.168;2023-02-01T02:14:40;1.50;99.90
22008;DHT22;11168;56.976;24.168;2023-02-01T02:17:20;1.50;99.90
22008;DHT22;11168;56.976;24.168;2023-02-01T02:25:29;1.50;99.90
22008;DHT22;11168;56.976;24.168;2023-02-01T02:31:31;1.50;99.90
22008;DHT22;11168;56.976;24.168;2023-02-01T02:48:26;1.50;99.90
22008;DHT22;11168;56.976;24.168;2023-02-01T02:51:03;1.50;99.90
22008;DHT22;11168;56.976;24.168;2023-02-01T02:56:53;1.50;99.90
22008;DHT22;11168;56.976;24.168;2023-02-01T02:59:41;1.50;99.90
22008;DHT22;11168;56.976;24.168;2023-02-01T03:02:28;1.50;99.90
22008;DHT22;11168;56.976;24.168;2023-02-01T03:05:14;1.50;99.90
22008;DHT22;11168;56.976;24.168;2023-02-01T03:13:07;1.50;99.90
22008;DHT22;11168;56.976;24.168;2023-02-01T03:15:55;1.40;99.90
22008;DHT22;11168;56.976;24.168;2023-02-01T03:21:20;1.50;99.90
22008;DHT22;11168;56.976;24.168;2023-02-01T03:23:50;1.50;99.90
22008;DHT22;11168;56.976;24.168;2023-02-01T03:26:18;1.50;99.90
22008;DHT22;11168;56.976;24.168;2023-02-01T03:28:55;1.50;99.90
22008;DHT22;11168;56.976;24.168;2023-02-01T03:31:24;1.50;99.90
22008;DHT22;11168;56.976;24.168;2023-02-01T03:33:51;1.50;99.90
22008;DHT22;11168;56.976;24.168;2023-02-01T03:36:46;1.50;99.90
22008;DHT22;11168;56.976;24.168;2023-02-01T03:41:58;1.50;99.90
22008;DHT22;11168;56.976;24.168;2023-02-01T03:44:32;1.50;99.90
22008;DHT22;11168;56.976;24.168;2023-02-01T03:47:20;1.50;99.90
22008;DHT22;11168;56.976;24.168;2023-02-01T03:49:56;1.50;99.90
22008;DHT22;11168;56.976;24.168;2023-02-01T03:55:06;1.50;99.90
22008;DHT22;11168;56.976;24.168;2023-02-01T03:57:37;1.50;99.90
22008;DHT22;11168;56.976;24.168;2023-02-01T04:02:34;1.50;99.90
22008;DHT22;11168;56.976;24.168;2023-02-01T04:05:01;1.50;99.90
22008;DHT22;11168;56.976;24.168;2023-02-01T04:07:28;1.50;99.90
22008;DHT22;11168;56.976;24.168;2023-02-01T04:09:55;1.50;99.90
22008;DHT22;11168;56.976;24.168;2023-02-01T04:12:24;1.50;99.90
22008;DHT22;11168;56.976;24.168;2023-02-01T04:14:51;1.50;99.90
22008;DHT22;11168;56.976;24.168;2023-02-01T04:17:18;1.50;99.90
22008;DHT22;11168;56.976;24.168;2023-02-01T04:19:45;1.50;99.90
22008;DHT22;11168;56.976;24.168;2023-02-01T04:22:12;1.60;99.90
22008;DHT22;11168;56.976;24.168;2023-02-01T04:24:44;1.50;99.90
22008;DHT22;11168;56.976;24.168;2023-02-01T04:27:11;1.50;99.90
22008;DHT22;11168;56.976;24.168;2023-02-01T04:29:39;1.50;99.90
22008;DHT22;11168;56.976;24.168;2023-02-01T04:32:06;1.50;99.90
22008;DHT22;11168;56.976;24.168;2023-02-01T04:34:33;1.50;99.90
22008;DHT22;11168;56.976;24.168;2023-02-01T04:37:00;1.50;99.90
22008;DHT22;11168;56.976;24.168;2023-02-01T04:39:27;1.50;99.90
22008;DHT22;11168;56.976;24.168;2023-02-01T04:41:54;1.50;99.90
22008;DHT22;11168;56.976;24.168;2023-02-01T04:44:21;1.50;99.90
22008;DHT22;11168;56.976;24.168;2023-02-01T04:46:48;1.50;99.90
22008;DHT22;11168;56.976;24.168;2023-02-01T04:49:15;1.50;99.90
22008;DHT22;11168;56.976;24.168;2023-02-01T04:51:42;1.50;99.90
22008;DHT22;11168;56.976;24.168;2023-02-01T04:54:09;1.50;99.90
22008;DHT22;11168;56.976;24.168;2023-02-01T04:56:39;1.50;99.90
22008;DHT22;11168;56.976;24.168;2023-02-01T04:59:06;1.50;99.90
22008;DHT22;11168;56.976;24.168;2023-02-01T05:01:33;1.50;99.90
22008;DHT22;11168;56.976;24.168;2023-02-01T05:04:00;1.50;99.90
22008;DHT22;11168;56.976;24.168;2023-02-01T05:06:27;1.40;99.90
22008;DHT22;11168;56.976;24.168;2023-02-01T05:08:54;2.30;99.90
22008;DHT22;11168;56.976;24.168;2023-02-01T05:11:21;1.40;99.90
22008;DHT22;11168;56.976;24.168;2023-02-01T05:14:06;1.40;99.90
22008;DHT22;11168;56.976;24.168;2023-02-01T05:16:33;1.40;99.90
22008;DHT22;11168;56.976;24.168;2023-02-01T05:19:00;1.40;99.90
22008;DHT22;11168;56.976;24.168;2023-02-01T05:21:27;1.40;99.90
22008;DHT22;11168;56.976;24.168;2023-02-01T05:23:54;1.40;99.90
22008;DHT22;11168;56.976;24.168;2023-02-01T05:26:37;1.40;99.90
22008;DHT22;11168;56.976;24.168;2023-02-01T05:29:05;1.40;99.90
22008;DHT22;11168;56.976;24.168;2023-02-01T05:31:33;1.40;99.90
22008;DHT22;11168;56.976;24.168;2023-02-01T05:34:00;1.40;99.90
22008;DHT22;11168;56.976;24.168;2023-02-01T05:36:27;1.40;99.90
22008;DHT22;11168;56.976;24.168;2023-02-01T05:38:54;1.40;99.90
22008;DHT22;11168;56.976;24.168;2023-02-01T05:41:21;1.40;99.90
22008;DHT22;11168;56.976;24.168;2023-02-01T05:43:48;1.40;99.90
22008;DHT22;11168;56.976;24.168;2023-02-01T05:46:15;1.40;99.90
22008;DHT22;11168;56.976;24.168;2023-02-01T05:48:42;1.40;99.90
22008;DHT22;11168;56.976;24.168;2023-02-01T05:51:10;1.40;99.90
22008;DHT22;11168;56.976;24.168;2023-02-01T05:53:37;1.40;99.90
22008;DHT22;11168;56.976;24.168;2023-02-01T05:56:05;1.40;99.90
22008;DHT22;11168;56.976;24.168;2023-02-01T05:58:32;1.40;99.90
22008;DHT22;11168;56.976;24.168;2023-02-01T06:01:02;1.40;99.90
22008;DHT22;11168;56.976;24.168;2023-02-01T06:03:29;1.40;99.90
22008;DHT22;11168;56.976;24.168;2023-02-01T06:05:56;1.40;99.90
22008;DHT22;11168;56.976;24.168;2023-02-01T06:08:23;1.40;99.90
22008;DHT22;11168;56.976;24.168;2023-02-01T06:11:00;1.30;99.90
22008;DHT22;11168;56.976;24.168;2023-02-01T06:13:27;1.30;99.90
22008;DHT22;11168;56.976;24.168;2023-02-01T06:15:54;1.30;99.90
22008;DHT22;11168;56.976;24.168;2023-02-01T06:18:24;1.30;99.90
22008;DHT22;11168;56.976;24.168;2023-02-01T06:20:58;1.30;99.90
22008;DHT22;11168;56.976;24.168;2023-02-01T06:23:29;1.90;99.90
22008;DHT22;11168;56.976;24.168;2023-02-01T06:26:02;1.30;99.90
22008;DHT22;11168;56.976;24.168;2023-02-01T06:28:30;1.30;99.90
22008;DHT22;11168;56.976;24.168;2023-02-01T06:30:57;1.30;99.90
22008;DHT22;11168;56.976;24.168;2023-02-01T06:33:25;1.30;99.90
22008;DHT22;11168;56.976;24.168;2023-02-01T06:35:59;1.30;99.90
22008;DHT22;11168;56.976;24.168;2023-02-01T06:38:27;1.30;99.90
22008;DHT22;11168;56.976;24.168;2023-02-01T06:40:54;1.30;99.90
22008;DHT22;11168;56.976;24.168;2023-02-01T06:43:23;1.30;99.90
22008;DHT22;11168;56.976;24.168;2023-02-01T06:45:50;1.30;99.90
22008;DHT22;11168;56.976;24.168;2023-02-01T06:48:18;1.30;99.90
22008;DHT22;11168;56.976;24.168;2023-02-01T06:50:45;1.40;99.90
22008;DHT22;11168;56.976;24.168;2023-02-01T06:53:12;1.30;99.90
22008;DHT22;11168;56.976;24.168;2023-02-01T06:55:39;1.40;99.90
22008;DHT22;11168;56.976;24.168;2023-02-01T06:58:06;1.40;99.90
22008;DHT22;11168;56.976;24.168;2023-02-01T07:00:34;1.30;99.90
22008;DHT22;11168;56.976;24.168;2023-02-01T07:03:01;1.40;99.90
22008;DHT22;11168;56.976;24.168;2023-02-01T07:05:28;1.40;99.90
22008;DHT22;11168;56.976;24.168;2023-02-01T07:07:55;1.30;99.90
22008;DHT22;11168;56.976;24.168;2023-02-01T07:10:22;1.40;99.90
22008;DHT22;11168;56.976;24.168;2023-02-01T07:12:50;1.40;99.90
22008;DHT22;11168;56.976;24.168;2023-02-01T07:15:17;1.50;99.90
22008;DHT22;11168;56.976;24.168;2023-02-01T07:17:46;1.40;99.90
22008;DHT22;11168;56.976;24.168;2023-02-01T07:20:14;1.30;99.90
22008;DHT22;11168;56.976;24.168;2023-02-01T07:22:41;1.40;99.90
22008;DHT22;11168;56.976;24.168;2023-02-01T07:25:08;1.30;99.90
22008;DHT22;11168;56.976;24.168;2023-02-01T07:27:36;1.40;99.90
22008;DHT22;11168;56.976;24.168;2023-02-01T07:30:06;1.40;99.90
22008;DHT22;11168;56.976;24.168;2023-02-01T07:32:34;1.40;99.90
22008;DHT22;11168;56.976;24.168;2023-02-01T07:35:01;1.40;99.90
22008;DHT22;11168;56.976;24.168;2023-02-01T07:37:27;1.30;99.90
22008;DHT22;11168;56.976;24.168;2023-02-01T07:39:54;1.40;99.90
22008;DHT22;11168;56.976;24.168;2023-02-01T07:42:21;1.40;99.90
22008;DHT22;11168;56.976;24.168;2023-02-01T07:44:48;1.40;99.90
22008;DHT22;11168;56.976;24.168;2023-02-01T07:47:15;1.40;99.90
22008;DHT22;11168;56.976;24.168;2023-02-01T07:49:42;1.40;99.90
22008;DHT22;11168;56.976;24.168;2023-02-01T07:52:09;1.40;99.90
22008;DHT22;11168;56.976;24.168;2023-02-01T07:54:37;3.20;99.90
22008;DHT22;11168;56.976;24.168;2023-02-01T07:57:04;1.40;99.90
22008;DHT22;11168;56.976;24.168;2023-02-01T07:59:31;1.40;99.90
22008;DHT22;11168;56.976;24.168;2023-02-01T08:01:58;1.40;99.90
22008;DHT22;11168;56.976;24.168;2023-02-01T08:04:25;1.40;99.90
22008;DHT22;11168;56.976;24.168;2023-02-01T08:06:52;1.60;99.90
22008;DHT22;11168;56.976;24.168;2023-02-01T08:09:19;1.50;99.90
22008;DHT22;11168;56.976;24.168;2023-02-01T08:11:46;1.50;99.90
22008;DHT22;11168;56.976;24.168;2023-02-01T08:14:13;1.50;99.90
22008;DHT22;11168;56.976;24.168;2023-02-01T08:16:40;1.50;99.90
22008;DHT22;11168;56.976;24.168;2023-02-01T08:19:06;1.50;99.90
22008;DHT22;11168;56.976;24.168;2023-02-01T08:21:33;1.50;99.90
22008;DHT22;11168;56.976;24.168;2023-02-01T08:24:08;1.50;99.90
22008;DHT22;11168;56.976;24.168;2023-02-01T08:26:36;1.50;99.90
22008;DHT22;11168;56.976;24.168;2023-02-01T08:29:05;1.50;99.90
22008;DHT22;11168;56.976;24.168;2023-02-01T08:31:32;1.50;99.90
22008;DHT22;11168;56.976;24.168;2023-02-01T08:34:01;1.50;99.90
22008;DHT22;11168;56.976;24.168;2023-02-01T08:36:30;1.50;99.90
22008;DHT22;11168;56.976;24.168;2023-02-01T08:38:58;1.50;99.90
22008;DHT22;11168;56.976;24.168;2023-02-01T08:41:27;1.60;99.90
22008;DHT22;11168;56.976;24.168;2023-02-01T08:43:56;1.60;99.90
22008;DHT22;11168;56.976;24.168;2023-02-01T08:46:24;1.60;99.90
22008;DHT22;11168;56.976;24.168;2023-02-01T08:48:52;1.70;99.90
22008;DHT22;11168;56.976;24.168;2023-02-01T08:51:21;1.70;99.90
22008;DHT22;11168;56.976;24.168;2023-02-01T08:53:48;1.70;99.90
22008;DHT22;11168;56.976;24.168;2023-02-01T08:56:17;1.70;99.90
22008;DHT22;11168;56.976;24.168;2023-02-01T08:58:47;1.70;99.90
22008;DHT22;11168;56.976;24.168;2023-02-01T09:01:15;1.70;99.90
22008;DHT22;11168;56.976;24.168;2023-02-01T09:03:43;1.70;99.90
22008;DHT22;11168;56.976;24.168;2023-02-01T09:06:13;1.70;99.90
22008;DHT22;11168;56.976;24.168;2023-02-01T09:08:41;1.80;99.90
22008;DHT22;11168;56.976;24.168;2023-02-01T09:11:12;1.80;99.90
22008;DHT22;11168;56.976;24.168;2023-02-01T09:13:40;1.80;99.90
22008;DHT22;11168;56.976;24.168;2023-02-01T09:16:07;1.80;99.90
22008;DHT22;11168;56.976;24.168;2023-02-01T09:18:34;1.80;99.90
22008;DHT22;11168;56.976;24.168;2023-02-01T09:21:07;1.80;99.90
22008;DHT22;11168;56.976;24.168;2023-02-01T09:23:35;1.80;99.90
22008;DHT22;11168;56.976;24.168;2023-02-01T09:26:03;1.80;99.90
22008;DHT22;11168;56.976;24.168;2023-02-01T09:28:31;1.80;99.90
22008;DHT22;11168;56.976;24.168;2023-02-01T09:30:59;1.80;99.90
22008;DHT22;11168;56.976;24.168;2023-02-01T09:33:26;1.80;99.90
22008;DHT22;11168;56.976;24.168;2023-02-01T09:35:58;1.80;99.90
22008;DHT22;11168;56.976;24.168;2023-02-01T09:38:26;1.90;99.90
22008;DHT22;11168;56.976;24.168;2023-02-01T09:40:54;1.80;99.90
22008;DHT22;11168;56.976;24.168;2023-02-01T09:43:41;1.90;99.90
22008;DHT22;11168;56.976;24.168;2023-02-01T09:46:26;1.90;99.90
22008;DHT22;11168;56.976;24.168;2023-02-01T09:48:54;1.90;99.90
22008;DHT22;11168;56.976;24.168;2023-02-01T09:51:26;2.20;99.90
22008;DHT22;11168;56.976;24.168;2023-02-01T09:56:50;2.00;99.90
22008;DHT22;11168;56.976;24.168;2023-02-01T09:59:39;2.10;99.90
22008;DHT22;11168;56.976;24.168;2023-02-01T10:02:22;2.20;99.90
22008;DHT22;11168;56.976;24.168;2023-02-01T10:04:49;2.20;99.90
22008;DHT22;11168;56.976;24.168;2023-02-01T10:10:31;2.20;99.90
22008;DHT22;11168;56.976;24.168;2023-02-01T10:13:21;2.20;99.90
22008;DHT22;11168;56.976;24.168;2023-02-01T10:24:06;2.30;99.90
22008;DHT22;11168;56.976;24.168;2023-02-01T10:26:47;2.40;99.90
22008;DHT22;11168;56.976;24.168;2023-02-01T10:29:19;2.40;99.90
22008;DHT22;11168;56.976;24.168;2023-02-01T10:34:27;2.60;99.90
22008;DHT22;11168;56.976;24.168;2023-02-01T10:39:49;2.40;99.90
22008;DHT22;11168;56.976;24.168;2023-02-01T10:42:23;2.50;99.90
22008;DHT22;11168;56.976;24.168;2023-02-01T10:44:50;2.30;99.90
22008;DHT22;11168;56.976;24.168;2023-02-01T10:47:19;2.30;99.90
22008;DHT22;11168;56.976;24.168;2023-02-01T10:52:38;2.40;99.90
22008;DHT22;11168;56.976;24.168;2023-02-01T10:58:29;2.40;99.90
22008;DHT22;11168;56.976;24.168;2023-02-01T11:01:04;2.50;99.90
22008;DHT22;11168;56.976;24.168;2023-02-01T11:08:53;2.40;99.90
22008;DHT22;11168;56.976;24.168;2023-02-01T11:11:21;2.40;99.90
22008;DHT22;11168;56.976;24.168;2023-02-01T11:14:00;2.40;99.90
22008;DHT22;11168;56.976;24.168;2023-02-01T11:16:35;2.40;99.90
22008;DHT22;11168;56.976;24.168;2023-02-01T11:19:02;2.50;99.90
22008;DHT22;11168;56.976;24.168;2023-02-01T11:21:30;2.60;99.90
22008;DHT22;11168;56.976;24.168;2023-02-01T11:24:02;2.60;99.90
22008;DHT22;11168;56.976;24.168;2023-02-01T11:26:31;2.60;99.90
22008;DHT22;11168;56.976;24.168;2023-02-01T11:29:04;2.60;99.90
22008;DHT22;11168;56.976;24.168;2023-02-01T11:31:33;2.60;99.90
22008;DHT22;11168;56.976;24.168;2023-02-01T11:34:09;2.70;99.90
22008;DHT22;11168;56.976;24.168;2023-02-01T11:36:40;2.70;99.90
22008;DHT22;11168;56.976;24.168;2023-02-01T11:39:09;2.70;99.90
22008;DHT22;11168;56.976;24.168;2023-02-01T11:44:46;2.80;99.90
22008;DHT22;11168;56.976;24.168;2023-02-01T11:47:30;2.70;99.90
22008;DHT22;11168;56.976;24.168;2023-02-01T11:50:03;2.70;99.90
22008;DHT22;11168;56.976;24.168;2023-02-01T11:52:48;2.80;99.90
22008;DHT22;11168;56.976;24.168;2023-02-01T11:58:27;2.70;99.90
22008;DHT22;11168;56.976;24.168;2023-02-01T12:04:30;2.80;99.90
22008;DHT22;11168;56.976;24.168;2023-02-01T12:31:10;2.90;99.90
22008;DHT22;11168;56.976;24.168;2023-02-01T12:33:56;2.90;99.90
22008;DHT22;11168;56.976;24.168;2023-02-01T12:37:01;3.00;99.90
22008;DHT22;11168;56.976;24.168;2023-02-01T12:39:43;2.90;99.90
22008;DHT22;11168;56.976;24.168;2023-02-01T12:47:38;3.00;99.90
22008;DHT22;11168;56.976;24.168;2023-02-01T12:50:29;3.10;99.90
22008;DHT22;11168;56.976;24.168;2023-02-01T12:53:11;2.90;99.90
22008;DHT22;11168;56.976;24.168;2023-02-01T12:55:49;2.70;99.90
22008;DHT22;11168;56.976;24.168;2023-02-01T13:01:12;3.00;99.90
22008;DHT22;11168;56.976;24.168;2023-02-01T13:06:50;3.00;99.90
22008;DHT22;11168;56.976;24.168;2023-02-01T13:09:27;2.90;99.90
22008;DHT22;11168;56.976;24.168;2023-02-01T13:11:59;2.90;99.90
22008;DHT22;11168;56.976;24.168;2023-02-01T13:19:55;3.00;99.90
22008;DHT22;11168;56.976;24.168;2023-02-01T13:22:25;3.00;99.90
22008;DHT22;11168;56.976;24.168;2023-02-01T13:27:39;3.00;99.90
22008;DHT22;11168;56.976;24.168;2023-02-01T13:30:15;2.90;99.90
22008;DHT22;11168;56.976;24.168;2023-02-01T13:35:57;2.80;99.90
22008;DHT22;11168;56.976;24.168;2023-02-01T13:41:26;2.90;99.90
22008;DHT22;11168;56.976;24.168;2023-02-01T13:43:58;2.80;99.90
22008;DHT22;11168;56.976;24.168;2023-02-01T13:46:26;2.80;99.90
22008;DHT22;11168;56.976;24.168;2023-02-01T13:48:55;2.80;99.90
22008;DHT22;11168;56.976;24.168;2023-02-01T13:51:37;2.90;99.90
22008;DHT22;11168;56.976;24.168;2023-02-01T13:54:06;2.80;99.90
22008;DHT22;11168;56.976;24.168;2023-02-01T13:56:44;2.90;99.90
22008;DHT22;11168;56.976;24.168;2023-02-01T14:10:49;2.90;99.90
22008;DHT22;11168;56.976;24.168;2023-02-01T14:13:39;2.90;99.90
22008;DHT22;11168;56.976;24.168;2023-02-01T14:21:31;3.00;99.90
22008;DHT22;11168;56.976;24.168;2023-02-01T14:24:00;3.10;99.90
22008;DHT22;11168;56.976;24.168;2023-02-01T14:26:47;3.10;99.90
22008;DHT22;11168;56.976;24.168;2023-02-01T14:29:20;3.10;99.90
22008;DHT22;11168;56.976;24.168;2023-02-01T14:32:16;3.00;99.90
22008;DHT22;11168;56.976;24.168;2023-02-01T14:40:01;3.00;99.90
22008;DHT22;11168;56.976;24.168;2023-02-01T14:58:57;2.90;99.90
22008;DHT22;11168;56.976;24.168;2023-02-01T15:01:29;2.90;99.90
22008;DHT22;11168;56.976;24.168;2023-02-01T15:09:04;3.00;99.90
22008;DHT22;11168;56.976;24.168;2023-02-01T15:14:43;2.80;99.90
22008;DHT22;11168;56.976;24.168;2023-02-01T15:17:22;2.80;99.90
22008;DHT22;11168;56.976;24.168;2023-02-01T15:20:00;2.80;99.90
22008;DHT22;11168;56.976;24.168;2023-02-01T15:22:31;2.80;99.90
22008;DHT22;11168;56.976;24.168;2023-02-01T15:24:59;2.80;99.90
22008;DHT22;11168;56.976;24.168;2023-02-01T15:27:28;2.80;99.90
22008;DHT22;11168;56.976;24.168;2023-02-01T15:30:08;2.80;99.90
22008;DHT22;11168;56.976;24.168;2023-02-01T15:32:38;2.70;99.90
22008;DHT22;11168;56.976;24.168;2023-02-01T15:35:30;2.70;99.90
22008;DHT22;11168;56.976;24.168;2023-02-01T15:37:53;2.70;99.90
22008;DHT22;11168;56.976;24.168;2023-02-01T15:43:19;2.60;99.90
22008;DHT22;11168;56.976;24.168;2023-02-01T15:45:46;2.50;99.90
22008;DHT22;11168;56.976;24.168;2023-02-01T15:48:19;2.40;99.90
22008;DHT22;11168;56.976;24.168;2023-02-01T15:50:48;2.40;99.90
22008;DHT22;11168;56.976;24.168;2023-02-01T15:53:24;2.40;99.90
22008;DHT22;11168;56.976;24.168;2023-02-01T15:55:54;2.30;99.90
22008;DHT22;11168;56.976;24.168;2023-02-01T15:58:23;2.30;99.90
22008;DHT22;11168;56.976;24.168;2023-02-01T16:03:36;2.30;99.90
22008;DHT22;11168;56.976;24.168;2023-02-01T16:06:09;2.20;99.90
22008;DHT22;11168;56.976;24.168;2023-02-01T16:08:48;2.20;99.90
22008;DHT22;11168;56.976;24.168;2023-02-01T16:11:26;2.10;99.90
22008;DHT22;11168;56.976;24.168;2023-02-01T16:13:54;2.20;99.90
22008;DHT22;11168;56.976;24.168;2023-02-01T16:16:21;2.10;99.90
22008;DHT22;11168;56.976;24.168;2023-02-01T16:18:48;2.20;99.90
22008;DHT22;11168;56.976;24.168;2023-02-01T16:21:15;2.20;99.90
22008;DHT22;11168;56.976;24.168;2023-02-01T16:23:42;2.20;99.90
22008;DHT22;11168;56.976;24.168;2023-02-01T16:26:09;2.20;99.90
22008;DHT22;11168;56.976;24.168;2023-02-01T16:28:38;2.10;99.90
22008;DHT22;11168;56.976;24.168;2023-02-01T16:31:05;2.20;99.90
22008;DHT22;11168;56.976;24.168;2023-02-01T16:33:35;2.20;99.90
22008;DHT22;11168;56.976;24.168;2023-02-01T16:36:02;2.10;99.90
22008;DHT22;11168;56.976;24.168;2023-02-01T16:38:31;2.10;99.90
22008;DHT22;11168;56.976;24.168;2023-02-01T16:40:58;2.10;99.90
22008;DHT22;11168;56.976;24.168;2023-02-01T16:43:25;2.10;99.90
22008;DHT22;11168;56.976;24.168;2023-02-01T16:45:54;2.10;99.90
22008;DHT22;11168;56.976;24.168;2023-02-01T16:48:28;2.10;99.90
22008;DHT22;11168;56.976;24.168;2023-02-01T16:51:04;2.10;99.90
22008;DHT22;11168;56.976;24.168;2023-02-01T16:53:35;2.10;99.90
22008;DHT22;11168;56.976;24.168;2023-02-01T16:56:21;2.10;99.90
22008;DHT22;11168;56.976;24.168;2023-02-01T16:58:49;2.10;99.90
22008;DHT22;11168;56.976;24.168;2023-02-01T17:01:18;2.10;99.90
22008;DHT22;11168;56.976;24.168;2023-02-01T17:03:46;2.10;99.90
22008;DHT22;11168;56.976;24.168;2023-02-01T17:06:18;2.10;99.90
22008;DHT22;11168;56.976;24.168;2023-02-01T17:08:52;2.00;99.90
22008;DHT22;11168;56.976;24.168;2023-02-01T17:11:19;2.00;99.90
22008;DHT22;11168;56.976;24.168;2023-02-01T17:13:47;2.10;99.90
22008;DHT22;11168;56.976;24.168;2023-02-01T17:16:21;2.00;99.90
22008;DHT22;11168;56.976;24.168;2023-02-01T17:19:19;2.00;99.90
22008;DHT22;11168;56.976;24.168;2023-02-01T17:21:52;2.00;99.90
22008;DHT22;11168;56.976;24.168;2023-02-01T17:24:23;2.10;99.90
22008;DHT22;11168;56.976;24.168;2023-02-01T17:26:58;2.10;99.90
22008;DHT22;11168;56.976;24.168;2023-02-01T17:29:28;2.10;99.90
22008;DHT22;11168;56.976;24.168;2023-02-01T17:31:56;2.10;99.90
22008;DHT22;11168;56.976;24.168;2023-02-01T17:34:26;2.10;99.90
22008;DHT22;11168;56.976;24.168;2023-02-01T17:36:53;2.10;99.90
22008;DHT22;11168;56.976;24.168;2023-02-01T17:39:20;2.10;99.90
22008;DHT22;11168;56.976;24.168;2023-02-01T17:42:10;2.10;99.90
22008;DHT22;11168;56.976;24.168;2023-02-01T17:44:39;2.10;99.90
22008;DHT22;11168;56.976;24.168;2023-02-01T17:47:06;2.10;99.90
22008;DHT22;11168;56.976;24.168;2023-02-01T17:49:35;2.00;99.90
22008;DHT22;11168;56.976;24.168;2023-02-01T17:52:14;2.40;99.90
22008;DHT22;11168;56.976;24.168;2023-02-01T17:54:42;2.20;99.90
22008;DHT22;11168;56.976;24.168;2023-02-01T17:57:13;2.00;99.90
22008;DHT22;11168;56.976;24.168;2023-02-01T17:59:40;1.90;99.90
22008;DHT22;11168;56.976;24.168;2023-02-01T18:02:22;1.70;99.90
22008;DHT22;11168;56.976;24.168;2023-02-01T18:04:50;2.00;99.90
22008;DHT22;11168;56.976;24.168;2023-02-01T18:12:19;1.90;99.90
22008;DHT22;11168;56.976;24.168;2023-02-01T18:14:47;2.30;99.90
22008;DHT22;11168;56.976;24.168;2023-02-01T18:17:14;2.40;99.90
22008;DHT22;11168;56.976;24.168;2023-02-01T18:19:41;2.40;99.90
22008;DHT22;11168;56.976;24.168;2023-02-01T18:22:20;2.00;99.90
22008;DHT22;11168;56.976;24.168;2023-02-01T18:24:47;2.40;99.90
22008;DHT22;11168;56.976;24.168;2023-02-01T18:27:14;2.10;99.90
22008;DHT22;11168;56.976;24.168;2023-02-01T18:32:09;2.30;99.90
22008;DHT22;11168;56.976;24.168;2023-02-01T18:34:36;2.20;99.90
22008;DHT22;11168;56.976;24.168;2023-02-01T18:37:03;2.50;99.90
22008;DHT22;11168;56.976;24.168;2023-02-01T18:39:30;2.20;99.90
22008;DHT22;11168;56.976;24.168;2023-02-01T18:41:57;2.20;99.90
22008;DHT22;11168;56.976;24.168;2023-02-01T18:44:24;2.20;99.90
22008;DHT22;11168;56.976;24.168;2023-02-01T18:49:18;2.20;99.90
22008;DHT22;11168;56.976;24.168;2023-02-01T18:54:13;2.10;99.90
22008;DHT22;11168;56.976;24.168;2023-02-01T18:56:40;2.20;99.90
22008;DHT22;11168;56.976;24.168;2023-02-01T18:59:08;2.20;99.90
22008;DHT22;11168;56.976;24.168;2023-02-01T19:01:37;2.10;99.90
22008;DHT22;11168;56.976;24.168;2023-02-01T19:04:04;2.10;99.90
22008;DHT22;11168;56.976;24.168;2023-02-01T19:06:42;2.30;99.90
22008;DHT22;11168;56.976;24.168;2023-02-01T19:09:09;2.30;99.90
22008;DHT22;11168;56.976;24.168;2023-02-01T19:11:38;2.30;99.90